Aviation Digital Data Service (ADDS)

Output produced by METARs form (1238 UTC 15 November 2018)
found at http://www.aviationweather.gov/metar/data/
 
DXXX 151200Z 13017G28KT 080V170 6000 BKN011 FEW020CB 26/22 Q1012 BECMG 4000 TSRA
TAF DXXX 151100Z 1512/1618 20010KT 9999 SCT014 
     TEMPO 1512/1517 TS BKN012 FEW020CB 
     PROB30 4000 TSRA 
     BECMG 1519/1521 VRB03KT 
     BECMG 1608/1610 20010KT
       
DXNG 151200Z 08007KT 020V130 CAVOK 33/08 Q1013 NOSIG
TAF DXNG 151100Z 1512/1612 VRB05KT CAVOK